Time;durP1;ratioP1;P1;durP2;ratioP2;P2;SDS_P1;SDS_P2;PMS_P1;PMS_P2;Temp;Humidity;BMP_temperature;BMP_pressure;BME280_temperature;BME280_humidity;BME280_pressure;Samples;Min_cycle;Max_cycle;Signal;HPM_P1;HPM_P2
2023/03/05 00:04:14;;;;;;;11.23;2.83;;;;;;;2.30;73.52;100811.69;10476656;28;20509;-74
2023/03/05 00:09:18;;;;;;;11.07;2.25;;;;;;;2.44;73.75;100816.47;10472684;28;20063;-74
2023/03/05 00:14:21;;;;;;;13.80;2.63;;;;;;;2.14;74.88;100806.16;10479328;28;20060;-75
2023/03/05 00:19:23;;;;;;;11.68;2.60;;;;;;;2.21;73.92;100808.56;10466016;28;20351;-74
2023/03/05 00:24:27;;;;;;;10.90;2.70;;;;;;;2.59;72.85;100812.34;10464435;28;20051;-76
2023/03/05 00:29:30;;;;;;;14.95;2.65;;;;;;;2.37;73.38;100802.56;10474727;28;20040;-76
2023/03/05 00:34:35;;;;;;;14.70;2.38;;;;;;;2.32;73.75;100793.06;10460552;28;20049;-74
2023/03/05 00:39:39;;;;;;;11.15;2.90;;;;;;;2.28;73.31;100780.88;10457643;28;20072;-76
2023/03/05 00:44:41;;;;;;;8.40;2.50;;;;;;;2.11;74.23;100782.41;10467568;28;20140;-76
2023/03/05 00:49:45;;;;;;;17.38;2.83;;;;;;;2.22;73.64;100776.66;10459768;28;20052;-76
2023/03/05 00:54:49;;;;;;;10.77;3.47;;;;;;;1.76;75.75;100773.19;10471128;28;20151;-77
2023/03/05 00:59:52;;;;;;;16.83;4.05;;;;;;;2.11;75.76;100763.88;10450409;28;20456;-76
2023/03/05 01:04:55;;;;;;;14.55;3.05;;;;;;;1.49;78.76;100762.72;10468110;28;20033;-76
2023/03/05 01:09:59;;;;;;;16.27;3.95;;;;;;;1.78;78.86;100752.78;10459652;28;20104;-76
2023/03/05 01:15:02;;;;;;;10.93;3.70;;;;;;;1.86;78.73;100740.09;10464112;28;20075;-78
2023/03/05 01:20:06;;;;;;;13.80;3.97;;;;;;;1.62;79.93;100730.44;10465111;28;20065;-76
2023/03/05 01:25:12;;;;;;;15.25;5.57;;;;;;;1.80;79.60;100718.28;10465776;28;20132;-76
2023/03/05 01:30:15;;;;;;;12.20;4.63;;;;;;;1.61;80.28;100720.78;10447763;28;20045;-76
2023/03/05 01:35:20;;;;;;;13.50;4.28;;;;;;;1.21;82.46;100719.66;10467227;28;20131;-77
2023/03/05 01:40:27;;;;;;;16.45;4.65;;;;;;;1.77;80.33;100708.69;10458643;28;20044;-76
2023/03/05 01:45:31;;;;;;;21.67;5.57;;;;;;;1.95;78.89;100697.34;10444918;28;20056;-76
2023/03/05 01:50:35;;;;;;;13.25;4.22;;;;;;;1.40;80.25;100695.97;10453431;28;20060;-76
2023/03/05 01:55:39;;;;;;;12.23;4.45;;;;;;;1.49;81.12;100688.56;10480075;28;20119;-76
2023/03/05 02:00:45;;;;;;;14.55;6.10;;;;;;;1.57;79.98;100690.94;10454170;28;20084;-76
2023/03/05 02:05:49;;;;;;;15.25;5.85;;;;;;;2.05;78.60;100697.84;10466222;28;20761;-76
2023/03/05 02:10:55;;;;;;;16.20;5.65;;;;;;;1.76;79.06;100684.91;10452220;28;20041;-73
2023/03/05 02:15:59;;;;;;;15.82;5.57;;;;;;;1.79;78.60;100674.19;10462318;28;20105;-76
2023/03/05 02:21:05;;;;;;;14.93;4.75;;;;;;;1.58;79.47;100662.66;10469633;28;20045;-76
2023/03/05 02:26:09;;;;;;;19.00;5.63;;;;;;;1.45;79.67;100654.31;10448895;28;20135;-75
2023/03/05 02:31:15;;;;;;;19.73;5.40;;;;;;;1.77;78.61;100652.19;10472814;28;20049;-76
2023/03/05 02:36:20;;;;;;;16.88;4.63;;;;;;;1.94;78.50;100645.28;10473959;28;20041;-75
2023/03/05 02:41:24;;;;;;;19.45;4.68;;;;;;;2.03;78.19;100637.88;10477513;28;20111;-76
2023/03/05 02:46:27;;;;;;;11.07;3.58;;;;;;;1.79;77.51;100635.31;10450464;28;20041;-77
2023/03/05 02:51:31;;;;;;;15.68;4.90;;;;;;;1.42;79.92;100635.91;10475138;28;20044;-76
2023/03/05 02:56:34;;;;;;;14.32;3.45;;;;;;;1.74;78.54;100632.00;10473176;28;20140;-75
2023/03/05 03:01:37;;;;;;;18.58;3.55;;;;;;;1.98;77.88;100626.63;10470850;28;20049;-75
2023/03/05 03:06:41;;;;;;;10.10;3.88;;;;;;;1.81;77.95;100608.75;10481295;28;20041;-76
2023/03/05 03:11:44;;;;;;;7.22;2.75;;;;;;;1.78;78.48;100604.44;10460640;28;20508;-77
2023/03/05 03:16:47;;;;;;;14.13;4.65;;;;;;;2.04;77.21;100599.88;10479040;28;20487;-76
2023/03/05 03:21:53;;;;;;;13.85;3.90;;;;;;;2.23;76.37;100590.19;10461755;28;20041;-76
2023/03/05 03:26:56;;;;;;;14.77;4.07;;;;;;;1.95;78.26;100594.03;10484637;28;20036;-76
2023/03/05 03:31:59;;;;;;;19.13;4.60;;;;;;;1.44;80.53;100591.72;10487274;28;20044;-76
2023/03/05 03:37:03;;;;;;;15.70;4.38;;;;;;;1.84;79.99;100582.16;10479621;28;20040;-77
2023/03/05 03:42:06;;;;;;;15.85;4.60;;;;;;;1.91;79.84;100576.53;10460611;28;20064;-77
2023/03/05 03:47:09;;;;;;;11.82;4.00;;;;;;;1.39;80.73;100568.06;10475440;28;20052;-76
2023/03/05 03:52:14;;;;;;;14.93;4.03;;;;;;;1.60;81.45;100558.41;10483888;28;20045;-77
2023/03/05 03:57:16;;;;;;;15.70;6.05;;;;;;;1.40;81.34;100563.63;10488690;28;20055;-77
2023/03/05 04:02:19;;;;;;;13.45;4.35;;;;;;;1.57;81.55;100561.19;10488457;28;20052;-76
2023/03/05 04:07:24;;;;;;;17.58;4.25;;;;;;;1.52;81.99;100554.34;10490590;28;20545;-76
2023/03/05 04:12:27;;;;;;;12.70;3.42;;;;;;;1.56;81.12;100546.19;10481967;28;20491;-76
2023/03/05 04:17:29;;;;;;;16.17;3.78;;;;;;;1.63;81.23;100544.19;10485513;28;20064;-76
2023/03/05 04:22:33;;;;;;;13.48;3.50;;;;;;;1.42;80.82;100527.38;10461266;28;20044;-75
2023/03/05 04:27:38;;;;;;;10.75;3.03;;;;;;;1.41;81.30;100521.22;10485638;28;20049;-75
2023/03/05 04:32:41;;;;;;;9.93;3.20;;;;;;;1.55;81.30;100519.81;10483198;28;20120;-75
2023/03/05 04:37:47;;;;;;;10.82;3.67;;;;;;;1.48;80.87;100512.13;10493054;28;20068;-77
2023/03/05 04:42:49;;;;;;;10.65;3.35;;;;;;;1.81;79.59;100519.56;10476973;28;20041;-75
2023/03/05 04:47:52;;;;;;;10.55;3.75;;;;;;;1.72;80.02;100509.34;10482806;28;20518;-75
2023/03/05 04:52:56;;;;;;;15.27;4.22;;;;;;;1.69;79.70;100506.84;10497764;22;20073;-77
2023/03/05 04:57:59;;;;;;;13.98;3.63;;;;;;;1.85;78.86;100502.59;10498719;28;20056;-78
2023/03/05 05:03:02;;;;;;;11.00;2.88;;;;;;;1.80;78.70;100501.94;10503863;28;20090;-78
2023/03/05 05:08:07;;;;;;;12.70;3.65;;;;;;;1.61;79.50;100488.63;10479878;28;20590;-77
2023/03/05 05:13:09;;;;;;;12.55;4.22;;;;;;;1.92;78.33;100498.78;10502824;28;20068;-77
2023/03/05 05:18:12;;;;;;;9.27;4.22;;;;;;;1.58;79.04;100493.19;10513416;28;20548;-78
2023/03/05 05:23:17;;;;;;;12.20;2.67;;;;;;;1.14;79.74;100493.22;10491562;28;20055;-78
2023/03/05 05:28:20;;;;;;;11.00;4.45;;;;;;;1.57;79.40;100483.53;10511978;28;20032;-77
2023/03/05 05:33:23;;;;;;;10.50;3.60;;;;;;;1.54;79.21;100494.22;10520976;28;20059;-78
2023/03/05 05:38:27;;;;;;;9.60;2.65;;;;;;;1.31;79.59;100493.41;10508948;28;20067;-78
2023/03/05 05:43:30;;;;;;;10.45;3.25;;;;;;;1.26;80.26;100496.25;10483718;28;20091;-77
2023/03/05 05:48:35;;;;;;;13.10;4.28;;;;;;;1.45;79.81;100503.41;10521118;28;20090;-77
2023/03/05 05:53:39;;;;;;;12.55;3.50;;;;;;;1.71;79.11;100495.25;10485054;28;20099;-78
2023/03/05 05:58:43;;;;;;;6.82;2.53;;;;;;;1.59;79.43;100495.78;10492835;28;20415;-78
2023/03/05 06:03:46;;;;;;;9.75;3.13;;;;;;;1.39;80.86;100491.28;10513896;28;20075;-78
2023/03/05 06:08:51;;;;;;;7.05;3.05;;;;;;;1.35;80.00;100488.88;10504765;28;20049;-77
2023/03/05 06:13:54;;;;;;;3.95;2.53;;;;;;;0.98;82.52;100496.47;10521916;28;20102;-77
2023/03/05 06:18:57;;;;;;;6.93;2.97;;;;;;;1.63;81.00;100486.78;10486623;28;20045;-78
2023/03/05 06:24:01;;;;;;;4.85;2.95;;;;;;;0.93;82.92;100482.56;10513707;28;20079;-77
2023/03/05 06:29:04;;;;;;;5.55;2.85;;;;;;;1.27;81.73;100495.31;10502860;28;20127;-77
2023/03/05 06:34:06;;;;;;;6.45;2.83;;;;;;;1.68;80.63;100476.84;10509992;28;20064;-77
2023/03/05 06:39:11;;;;;;;5.03;2.40;;;;;;;1.45;81.87;100483.13;10510396;28;20040;-76
2023/03/05 06:44:13;;;;;;;9.50;2.90;;;;;;;1.11;83.17;100478.34;10499475;28;20049;-79
2023/03/05 06:49:16;;;;;;;9.32;2.97;;;;;;;1.57;80.96;100478.25;10488449;28;20079;-76
2023/03/05 06:54:20;;;;;;;6.13;3.00;;;;;;;1.64;80.94;100474.38;10503125;28;20045;-76
2023/03/05 06:59:23;;;;;;;12.38;2.95;;;;;;;1.51;81.00;100463.47;10506419;28;20044;-77
2023/03/05 07:04:26;;;;;;;7.03;2.97;;;;;;;1.40;81.90;100474.50;10512486;28;20048;-77
2023/03/05 07:09:30;;;;;;;10.25;2.95;;;;;;;1.01;82.64;100469.03;10518002;28;20100;-77
2023/03/05 07:14:33;;;;;;;8.30;3.72;;;;;;;1.32;84.83;100462.50;10513115;28;20465;-76
2023/03/05 07:19:37;;;;;;;10.63;3.85;;;;;;;1.23;85.35;100469.88;10512878;28;20063;-76
2023/03/05 07:24:42;;;;;;;9.38;4.25;;;;;;;1.23;86.02;100458.44;10523008;28;20384;-76
2023/03/05 07:29:44;;;;;;;9.00;3.50;;;;;;;1.37;84.52;100463.16;10515835;28;20044;-78
2023/03/05 07:34:47;;;;;;;7.13;3.20;;;;;;;1.43;84.98;100460.28;10506235;28;20083;-78
2023/03/05 07:39:51;;;;;;;9.65;4.35;;;;;;;1.69;85.05;100452.06;10506346;28;20068;-78
2023/03/05 07:44:54;;;;;;;9.38;4.20;;;;;;;1.38;85.38;100452.53;10525641;28;20049;-77
2023/03/05 07:49:57;;;;;;;8.73;3.88;;;;;;;2.18;83.27;100454.38;10501815;28;20049;-79
2023/03/05 07:55:01;;;;;;;5.53;2.55;;;;;;;2.40;84.41;100457.75;10514061;28;20067;-79
2023/03/05 08:00:05;;;;;;;13.82;6.53;;;;;;;2.98;82.89;100451.53;10510179;28;20075;-80
2023/03/05 08:05:13;;;;;;;11.63;6.50;;;;;;;3.36;82.72;100446.13;10519799;28;20139;-78
2023/03/05 08:10:17;;;;;;;10.18;3.55;;;;;;;3.45;82.00;100435.03;10511305;28;20064;-78
2023/03/05 08:15:20;;;;;;;8.40;3.08;;;;;;;2.84;81.10;100438.06;10508961;28;20064;-77
2023/03/05 08:20:23;;;;;;;10.10;3.78;;;;;;;2.80;81.14;100436.50;10489569;28;20095;-77
2023/03/05 08:25:28;;;;;;;10.18;4.55;;;;;;;2.91;80.52;100431.53;10518365;28;20044;-78
2023/03/05 08:30:31;;;;;;;8.55;3.53;;;;;;;3.00;79.43;100431.09;10513693;28;20068;-77
2023/03/05 08:35:33;;;;;;;9.55;3.35;;;;;;;2.86;78.03;100422.09;10507300;28;20075;-79
2023/03/05 08:40:38;;;;;;;9.90;3.35;;;;;;;3.24;77.22;100420.19;10521510;28;20046;-79
2023/03/05 08:45:40;;;;;;;9.50;3.83;;;;;;;2.92;76.73;100419.13;10507713;28;20051;-79
2023/03/05 08:50:43;;;;;;;6.70;3.67;;;;;;;3.43;77.03;100417.47;10521054;28;20052;-80
2023/03/05 08:55:55;;;;;;;8.02;3.05;;;;;;;3.43;76.13;100407.72;10500638;28;20048;-79
2023/03/05 09:00:58;;;;;;;5.63;3.25;;;;;;;3.73;74.66;100407.94;10513021;28;20142;-79
2023/03/05 09:06:02;;;;;;;5.85;2.67;;;;;;;3.20;73.91;100398.22;10517515;28;20040;-79
2023/03/05 09:11:08;;;;;;;7.78;3.63;;;;;;;3.48;74.38;100399.50;10516823;28;20036;-78
2023/03/05 09:16:14;;;;;;;6.88;4.15;;;;;;;2.99;75.74;100404.59;10523183;28;20055;-78
2023/03/05 09:21:17;;;;;;;9.25;4.82;;;;;;;3.59;73.50;100394.47;10534338;28;20402;-79
2023/03/05 09:26:22;;;;;;;8.38;4.25;;;;;;;2.71;73.98;100394.47;10538486;28;20044;-79
2023/03/05 09:31:24;;;;;;;9.77;3.35;;;;;;;3.37;73.12;100396.53;10532870;28;20079;-80
2023/03/05 09:36:29;;;;;;;8.52;5.05;;;;;;;3.84;73.25;100387.88;10517186;28;20127;-79
2023/03/05 09:41:43;;;;;;;8.13;3.25;;;;;;;4.26;73.20;100397.19;10533660;28;20039;-80
2023/03/05 09:46:53;;;;;;;9.13;4.03;;;;;;;4.13;70.15;100383.69;10530532;28;20066;-78
2023/03/05 09:52:04;;;;;;;6.20;3.63;;;;;;;4.30;69.84;100378.28;10534670;28;20445;-79
2023/03/05 09:57:16;;;;;;;6.28;3.67;;;;;;;3.89;70.54;100372.56;10536787;28;20044;-78
2023/03/05 10:02:23;;;;;;;7.05;2.85;;;;;;;3.46;70.52;100374.84;10489488;28;20052;-78
2023/03/05 10:07:29;;;;;;;2.25;2.05;;;;;;;1.95;76.53;100395.31;10488292;28;20121;-79
2023/03/05 10:12:42;;;;;;;5.63;2.60;;;;;;;2.46;78.97;100386.81;10480792;28;20047;-78
2023/03/05 10:18:01;;;;;;;4.85;2.13;;;;;;;2.32;79.77;100383.00;10482075;28;20048;-77
2023/03/05 10:23:23;;;;;;;3.85;2.20;;;;;;;3.05;79.71;100373.34;10483585;28;20044;-77
2023/03/05 10:28:35;;;;;;;3.55;2.45;;;;;;;2.95;79.23;100366.75;10482939;28;20059;-78
2023/03/05 10:33:47;;;;;;;7.85;3.70;;;;;;;2.91;80.35;100354.59;10485629;28;20129;-78
2023/03/05 10:39:05;;;;;;;7.78;3.97;;;;;;;3.00;79.63;100353.28;10482695;28;20047;-77
2023/03/05 10:44:16;;;;;;;5.38;3.53;;;;;;;4.90;78.02;100342.13;10466010;28;20623;-78
2023/03/05 10:49:21;;;;;;;5.18;3.00;;;;;;;6.59;71.58;100327.28;10475002;28;20499;-77
2023/03/05 10:54:28;;;;;;;3.88;2.63;;;;;;;7.10;68.87;100329.28;10475092;28;20040;-77
2023/03/05 10:59:33;;;;;;;6.25;2.85;;;;;;;7.59;66.44;100305.41;10478301;28;20044;-78
2023/03/05 11:04:38;;;;;;;2.17;1.95;;;;;;;6.69;65.25;100298.16;10468991;28;20085;-78
2023/03/05 11:09:41;;;;;;;6.65;2.10;;;;;;;6.13;63.66;100300.91;10466760;28;20472;-78
2023/03/05 11:14:47;;;;;;;2.90;1.83;;;;;;;4.78;66.74;100301.97;10452341;28;20301;-77
2023/03/05 11:19:50;;;;;;;2.65;1.88;;;;;;;4.56;69.12;100294.38;10453758;28;20053;-78
2023/03/05 11:25:12;;;;;;;4.60;1.95;;;;;;;4.88;68.16;100296.09;10426499;28;20045;-79
2023/03/05 11:30:24;;;;;;;3.25;1.70;;;;;;;4.68;65.48;100291.94;10471947;28;20048;-77
2023/03/05 11:35:32;;;;;;;3.93;1.50;;;;;;;4.44;65.06;100283.56;10435868;28;20055;-77
2023/03/05 11:40:35;;;;;;;4.03;1.98;;;;;;;4.43;64.76;100271.22;10449024;28;20534;-77
2023/03/05 11:45:40;;;;;;;3.53;2.00;;;;;;;4.80;66.04;100269.94;10432355;28;20566;-77
2023/03/05 11:50:47;;;;;;;6.75;1.70;;;;;;;5.51;65.27;100269.25;10448697;28;20048;-78
2023/03/05 11:55:52;;;;;;;3.47;1.88;;;;;;;7.42;56.64;100252.28;10455104;28;20051;-78
2023/03/05 12:00:57;;;;;;;2.95;1.73;;;;;;;8.10;52.49;100241.16;10454172;28;20048;-78
2023/03/05 12:06:05;;;;;;;3.55;1.60;;;;;;;8.14;53.47;100233.75;10477408;28;20067;-78
2023/03/05 12:11:15;;;;;;;3.13;1.42;;;;;;;7.82;52.40;100228.94;10454113;28;20040;-77
2023/03/05 12:16:28;;;;;;;3.58;1.33;;;;;;;8.18;51.01;100219.19;10436599;28;20046;-79
2023/03/05 12:21:36;;;;;;;1.85;1.48;;;;;;;8.26;51.73;100210.59;10452645;28;20059;-79
2023/03/05 12:27:05;;;;;;;4.90;1.65;;;;;;;6.06;54.56;100208.91;10480457;28;20059;-79
2023/03/05 12:32:41;;;;;;;4.50;1.50;;;;;;;5.83;56.02;100205.94;10474687;28;20048;-79
2023/03/05 12:38:02;;;;;;;4.13;1.50;;;;;;;4.57;59.36;100202.97;10452812;28;20518;-79
2023/03/05 12:43:30;;;;;;;6.55;1.30;;;;;;;5.39;57.31;100193.59;10455240;28;20045;-79
2023/03/05 12:48:45;;;;;;;3.20;1.98;;;;;;;6.13;54.49;100184.41;10482199;28;20370;-79
2023/03/05 12:53:52;;;;;;;4.35;1.20;;;;;;;7.53;56.23;100180.22;10471415;28;20048;-79
2023/03/05 12:59:12;;;;;;;6.45;1.40;;;;;;;7.14;50.81;100168.72;10483092;28;20139;-80
2023/03/05 13:04:20;;;;;;;4.85;1.38;;;;;;;5.58;56.01;100160.47;10459675;28;20441;-78
2023/03/05 13:09:27;;;;;;;3.00;1.20;;;;;;;7.05;55.11;100154.19;10475844;28;20145;-79
2023/03/05 13:14:34;;;;;;;4.65;1.10;;;;;;;7.55;49.81;100140.88;10488429;28;20081;-79
2023/03/05 13:19:41;;;;;;;4.47;1.63;;;;;;;6.57;51.98;100139.72;10514407;28;20083;-79
2023/03/05 13:24:45;;;;;;;3.67;1.60;;;;;;;6.68;51.92;100129.16;10456707;28;20101;-79
2023/03/05 13:29:52;;;;;;;4.18;1.75;;;;;;;6.84;53.27;100119.13;10477907;28;20053;-78
2023/03/05 13:34:57;;;;;;;5.95;1.15;;;;;;;7.05;51.22;100119.47;10470774;28;20047;-78
2023/03/05 13:40:06;;;;;;;4.00;1.48;;;;;;;7.70;48.39;100114.81;10509860;28;20048;-78
2023/03/05 13:45:26;;;;;;;5.47;1.27;;;;;;;8.06;48.18;100103.22;10490391;28;20529;-79
2023/03/05 13:50:31;;;;;;;2.20;1.15;;;;;;;7.66;49.27;100095.50;10456415;28;20038;-79
2023/03/05 13:55:35;;;;;;;1.55;1.00;;;;;;;8.64;47.28;100083.72;10473663;28;20082;-79
2023/03/05 14:00:38;;;;;;;1.40;0.70;;;;;;;8.80;45.67;100065.47;10469482;28;20052;-78
2023/03/05 14:05:43;;;;;;;1.52;1.20;;;;;;;8.39;45.09;100061.47;10468253;28;20561;-78
2023/03/05 14:10:48;;;;;;;2.65;1.20;;;;;;;7.78;47.19;100050.94;10462849;28;20052;-78
2023/03/05 14:16:05;;;;;;;3.78;1.55;;;;;;;7.72;45.48;100054.09;10479678;28;20056;-78
2023/03/05 14:21:09;;;;;;;5.78;1.17;;;;;;;7.41;46.56;100051.00;10447957;28;20498;-78
2023/03/05 14:26:38;;;;;;;3.20;1.08;;;;;;;7.55;46.02;100036.63;10453716;28;20101;-77
2023/03/05 14:31:48;;;;;;;6.13;1.38;;;;;;;7.46;46.75;100035.50;10437804;28;20503;-77
2023/03/05 14:36:53;;;;;;;8.27;3.33;;;;;;;6.81;48.21;100028.56;10464796;28;20055;-77
2023/03/05 14:42:13;;;;;;;1.48;1.25;;;;;;;6.12;49.62;100017.38;10448590;28;20533;-77
2023/03/05 14:47:16;;;;;;;1.33;1.00;;;;;;;5.93;50.16;100006.25;10445193;28;20059;-77
2023/03/05 14:52:22;;;;;;;3.08;1.08;;;;;;;5.82;50.02;100003.47;10457765;28;20048;-77
2023/03/05 14:57:28;;;;;;;1.58;1.13;;;;;;;5.71;51.93;99991.69;10454548;28;20131;-77
2023/03/05 15:02:31;;;;;;;3.88;1.45;;;;;;;5.37;52.33;99995.72;10453060;28;20053;-76
2023/03/05 15:07:34;;;;;;;4.63;1.50;;;;;;;5.11;54.00;99991.25;10453633;28;20186;-77
2023/03/05 15:12:38;;;;;;;4.20;1.10;;;;;;;4.62;54.46;99977.41;10451098;28;20048;-76
2023/03/05 15:17:43;;;;;;;4.53;1.13;;;;;;;4.84;54.57;99973.41;10443868;28;20055;-76
2023/03/05 15:22:46;;;;;;;3.70;1.40;;;;;;;4.98;54.56;99975.19;10454827;28;20040;-76
2023/03/05 15:27:50;;;;;;;6.70;1.27;;;;;;;5.12;54.28;99971.66;10447576;28;20045;-76
2023/03/05 15:32:55;;;;;;;1.23;0.88;;;;;;;4.85;55.09;99977.75;10453134;28;20083;-76
2023/03/05 15:37:58;;;;;;;3.58;1.00;;;;;;;5.44;53.83;99967.75;10448502;28;20063;-76
2023/03/05 15:43:02;;;;;;;4.72;1.50;;;;;;;5.39;54.36;99961.84;10450908;28;20048;-76
2023/03/05 15:48:06;;;;;;;9.82;1.38;;;;;;;5.01;55.30;99965.22;10446779;28;20060;-76
2023/03/05 15:53:09;;;;;;;5.93;1.38;;;;;;;4.93;55.68;99962.16;10456072;28;20775;-75
2023/03/05 15:58:16;;;;;;;10.07;1.30;;;;;;;5.31;54.95;99948.19;10447697;28;20526;-78
2023/03/05 16:03:19;;;;;;;5.18;1.20;;;;;;;5.00;55.84;99955.53;10441665;28;20045;-75
2023/03/05 16:08:22;;;;;;;2.10;0.68;;;;;;;4.54;55.45;99950.44;10454318;28;20099;-77
2023/03/05 16:13:28;;;;;;;6.43;1.10;;;;;;;4.98;56.11;99946.75;10447795;28;20737;-77
2023/03/05 16:18:32;;;;;;;2.65;1.10;;;;;;;4.70;55.65;99937.03;10491705;28;20036;-77
2023/03/05 16:23:36;;;;;;;3.70;1.13;;;;;;;4.72;56.25;99940.44;10487279;28;20048;-77
2023/03/05 16:28:40;;;;;;;6.25;1.20;;;;;;;4.73;55.72;99933.31;10463479;28;21647;-77
2023/03/05 16:33:43;;;;;;;2.00;0.90;;;;;;;4.52;56.29;99938.19;10450137;28;20046;-77
2023/03/05 16:38:48;;;;;;;3.10;2.60;;;;;;;4.76;56.44;99930.47;10448731;28;20048;-77
2023/03/05 16:43:55;;;;;;;2.10;1.42;;;;;;;4.10;57.44;99929.28;10451101;28;20059;-75
2023/03/05 16:48:58;;;;;;;4.72;1.30;;;;;;;4.38;56.90;99923.94;10446320;28;20040;-76
2023/03/05 16:54:01;;;;;;;3.67;1.50;;;;;;;4.23;58.13;99924.06;10444741;28;20566;-76
2023/03/05 16:59:05;;;;;;;5.88;2.10;;;;;;;4.41;56.82;99914.91;10455196;28;20438;-76
2023/03/05 17:04:08;;;;;;;4.50;1.42;;;;;;;4.12;57.65;99920.25;10444150;28;20061;-76
2023/03/05 17:09:11;;;;;;;7.18;3.00;;;;;;;4.42;57.27;99921.97;10448688;28;20131;-77
2023/03/05 17:14:15;;;;;;;3.55;2.15;;;;;;;4.32;56.70;99910.19;10430698;28;20067;-76
2023/03/05 17:19:18;;;;;;;6.18;1.80;;;;;;;4.39;57.03;99895.56;10458142;28;20128;-76
2023/03/05 17:24:21;;;;;;;4.57;2.58;;;;;;;4.61;56.60;99903.88;10437132;28;20048;-76
2023/03/05 17:29:26;;;;;;;3.05;1.90;;;;;;;4.49;57.13;99904.66;10450376;28;20051;-76
2023/03/05 17:34:28;;;;;;;6.22;2.90;;;;;;;4.24;57.57;99900.03;10461391;28;20524;-77
2023/03/05 17:39:39;;;;;;;4.93;2.17;;;;;;;4.47;56.81;99892.41;10442750;28;20697;-77
2023/03/05 17:44:43;;;;;;;7.28;2.40;;;;;;;4.38;56.99;99897.34;10453713;28;20441;-78
2023/03/05 17:49:46;;;;;;;7.20;3.25;;;;;;;4.52;56.75;99888.50;10456881;28;20059;-78
2023/03/05 17:54:51;;;;;;;9.15;4.30;;;;;;;4.64;56.90;99897.53;10445696;28;20700;-77
2023/03/05 17:59:55;;;;;;;4.15;2.70;;;;;;;4.62;56.56;99886.13;10457400;28;20054;-77
2023/03/05 18:04:59;;;;;;;7.82;3.45;;;;;;;4.34;57.24;99885.22;10452180;28;20041;-77
2023/03/05 18:10:03;;;;;;;9.80;3.85;;;;;;;4.32;57.31;99880.94;10451511;28;20160;-77
2023/03/05 18:15:10;;;;;;;5.22;2.20;;;;;;;4.38;57.00;99883.19;10449052;28;20051;-77
2023/03/05 18:20:24;;;;;;;5.80;1.85;;;;;;;3.98;58.94;99876.84;10430355;28;20048;-77
2023/03/05 18:25:29;;;;;;;7.30;2.42;;;;;;;3.97;58.74;99875.16;10452547;28;20504;-77
2023/03/05 18:30:40;;;;;;;5.70;2.13;;;;;;;4.20;58.59;99873.72;10422138;28;20795;-77
2023/03/05 18:35:43;;;;;;;7.63;2.00;;;;;;;4.23;58.54;99868.22;10461660;28;20052;-77
2023/03/05 18:40:46;;;;;;;7.20;2.63;;;;;;;3.91;59.60;99861.28;10468668;28;20048;-77
2023/03/05 18:45:53;;;;;;;3.97;2.88;;;;;;;3.82;60.46;99863.69;10471140;28;20411;-77
2023/03/05 18:50:56;;;;;;;3.90;2.25;;;;;;;4.04;60.23;99866.72;10475435;28;20067;-77
2023/03/05 18:55:58;;;;;;;5.45;2.28;;;;;;;4.45;59.89;99860.59;10472032;28;20047;-77
2023/03/05 19:01:03;;;;;;;8.13;2.67;;;;;;;4.51;59.99;99865.53;10474965;28;20419;-77
2023/03/05 19:06:06;;;;;;;4.45;2.42;;;;;;;4.50;61.00;99858.50;10475650;28;20135;-77
2023/03/05 19:11:16;;;;;;;5.28;1.55;;;;;;;4.32;61.56;99849.88;10471265;28;20467;-77
2023/03/05 19:16:22;;;;;;;6.60;2.20;;;;;;;4.32;62.27;99849.88;10473703;28;20052;-77
2023/03/05 19:21:25;;;;;;;4.10;1.38;;;;;;;3.76;64.34;99848.09;10471915;28;20135;-77
2023/03/05 19:26:28;;;;;;;4.25;1.90;;;;;;;4.03;63.94;99842.88;10467459;28;20052;-77
2023/03/05 19:31:32;;;;;;;4.85;1.98;;;;;;;4.00;63.71;99835.94;10477639;28;20156;-77
2023/03/05 19:36:35;;;;;;;5.93;2.10;;;;;;;3.95;64.08;99833.59;10450416;28;20051;-76
2023/03/05 19:41:38;;;;;;;7.82;3.53;;;;;;;4.01;63.86;99827.03;10471746;28;20759;-76
2023/03/05 19:46:42;;;;;;;5.97;2.92;;;;;;;4.01;63.34;99824.38;10458198;28;20048;-76
2023/03/05 19:51:46;;;;;;;5.57;2.42;;;;;;;3.86;62.92;99820.00;10444576;28;20044;-76
2023/03/05 19:56:49;;;;;;;3.85;2.15;;;;;;;3.97;62.98;99819.34;10451877;28;21230;-76
2023/03/05 20:01:57;;;;;;;5.03;2.50;;;;;;;3.58;63.11;99816.41;10466257;28;20054;-77
2023/03/05 20:07:00;;;;;;;5.43;2.40;;;;;;;3.81;62.59;99814.13;10477289;28;20123;-77
2023/03/05 20:12:04;;;;;;;11.40;4.13;;;;;;;3.86;62.52;99815.56;10469933;28;21264;-77
2023/03/05 20:17:08;;;;;;;5.93;2.63;;;;;;;3.83;62.68;99809.59;10476883;28;20208;-77
2023/03/05 20:22:11;;;;;;;7.05;2.58;;;;;;;3.77;62.62;99805.50;10464202;28;20205;-76
2023/03/05 20:27:14;;;;;;;5.75;2.80;;;;;;;3.57;62.84;99806.75;10453915;28;20753;-76
2023/03/05 20:32:18;;;;;;;10.95;2.70;;;;;;;3.74;62.80;99805.69;10437911;28;20170;-77
2023/03/05 20:43:11;;;;;;;5.10;2.33;;;;;;;3.89;62.37;99799.41;10425347;28;20064;-76
2023/03/05 20:48:16;;;;;;;9.10;3.28;;;;;;;3.73;62.95;99791.56;10451629;28;21241;-75
2023/03/05 20:53:19;;;;;;;4.38;2.78;;;;;;;3.73;62.73;99785.41;10450123;28;20487;-77
2023/03/05 20:58:22;;;;;;;8.65;2.72;;;;;;;3.62;63.03;99783.41;10452248;28;20052;-76
2023/03/05 21:03:26;;;;;;;6.07;2.45;;;;;;;3.60;62.95;99772.03;10455943;28;20086;-76
2023/03/05 21:08:29;;;;;;;6.07;2.90;;;;;;;3.60;62.77;99764.06;10446198;28;20048;-76
2023/03/05 21:13:32;;;;;;;7.28;2.33;;;;;;;3.80;62.30;99751.31;10444017;28;20099;-76
2023/03/05 21:18:36;;;;;;;3.67;2.58;;;;;;;3.68;62.34;99745.84;10449592;28;20499;-76
2023/03/05 21:23:39;;;;;;;6.35;2.60;;;;;;;3.45;63.70;99738.44;10454274;28;20049;-76
2023/03/05 21:28:42;;;;;;;4.05;2.50;;;;;;;3.41;64.04;99736.94;10452460;28;20048;-76
2023/03/05 21:33:46;;;;;;;4.80;2.58;;;;;;;3.58;63.51;99734.06;10445204;28;20051;-76
2023/03/05 21:38:49;;;;;;;4.30;2.35;;;;;;;3.57;63.51;99726.22;10484819;23;20574;-78
2023/03/05 21:43:52;;;;;;;3.70;2.53;;;;;;;3.42;63.84;99718.22;10479512;28;20041;-79
2023/03/05 21:48:56;;;;;;;8.93;3.00;;;;;;;3.39;63.70;99717.56;10486792;28;20044;-79
2023/03/05 21:53:59;;;;;;;6.93;3.13;;;;;;;3.52;63.73;99701.75;10515697;28;20043;-78
2023/03/05 21:59:02;;;;;;;4.32;2.70;;;;;;;3.54;63.36;99705.13;10502971;28;20036;-78
2023/03/05 22:04:06;;;;;;;4.93;3.08;;;;;;;3.46;63.87;99692.38;10496084;28;20514;-79
2023/03/05 22:09:09;;;;;;;5.13;3.03;;;;;;;3.59;63.67;99689.78;10507383;28;20646;-78
2023/03/05 22:14:12;;;;;;;8.60;3.10;;;;;;;3.45;64.04;99672.91;10502832;28;20047;-78
2023/03/05 22:19:18;;;;;;;4.90;3.15;;;;;;;3.33;64.29;99662.22;10481147;28;20056;-78
2023/03/05 22:24:23;;;;;;;7.47;3.30;;;;;;;3.36;64.28;99662.03;10498786;28;20491;-78
2023/03/05 22:29:27;;;;;;;6.82;3.60;;;;;;;3.46;64.04;99653.38;10493749;28;20053;-78
2023/03/05 22:34:31;;;;;;;5.32;3.22;;;;;;;3.46;64.39;99642.75;10486679;28;20482;-78
2023/03/05 22:39:34;;;;;;;5.28;3.13;;;;;;;3.30;64.64;99644.69;10493229;28;20115;-78
2023/03/05 22:44:37;;;;;;;5.93;3.10;;;;;;;3.26;64.73;99627.22;10476764;28;20053;-78
2023/03/05 22:49:41;;;;;;;6.35;2.88;;;;;;;3.00;65.72;99635.00;10495717;28;20048;-78
2023/03/05 22:54:46;;;;;;;6.30;3.20;;;;;;;3.05;65.60;99629.44;10471373;28;20056;-78
2023/03/05 22:59:49;;;;;;;6.20;3.70;;;;;;;3.18;65.06;99624.19;10492760;28;20072;-78
2023/03/05 23:04:56;;;;;;;5.53;3.15;;;;;;;3.28;64.82;99620.03;10494959;28;21393;-78
2023/03/05 23:10:01;;;;;;;5.43;3.50;;;;;;;3.31;64.79;99603.91;10483343;28;20556;-79
2023/03/05 23:15:07;;;;;;;7.50;3.28;;;;;;;3.16;65.25;99605.72;10490673;28;20040;-78
2023/03/05 23:20:15;;;;;;;11.80;4.03;;;;;;;2.90;66.35;99594.06;10488197;28;20041;-78
2023/03/05 23:25:18;;;;;;;6.88;3.65;;;;;;;2.68;67.58;99601.63;10480779;28;20040;-78
2023/03/05 23:30:23;;;;;;;7.40;4.55;;;;;;;2.78;67.12;99594.84;10494411;28;20045;-78
2023/03/05 23:35:29;;;;;;;5.57;3.70;;;;;;;2.76;66.96;99597.56;10510759;28;20036;-78
2023/03/05 23:40:34;;;;;;;6.43;4.10;;;;;;;2.86;67.02;99586.41;10494365;28;20045;-78
2023/03/05 23:45:37;;;;;;;7.00;4.20;;;;;;;2.79;67.09;99594.72;10465511;28;20155;-78
2023/03/05 23:50:44;;;;;;;11.48;4.28;;;;;;;2.67;67.74;99590.19;10495161;28;20060;-77